createdAt,value
2018-05-15T00:01:06.919Z,12.96
2018-05-15T00:04:10.162Z,12.91
2018-05-15T00:07:13.433Z,12.80
2018-05-15T00:10:16.681Z,12.74
2018-05-15T00:13:19.939Z,12.56
2018-05-15T00:16:23.201Z,12.68
2018-05-15T00:19:26.454Z,12.67
2018-05-15T00:22:29.709Z,12.71
2018-05-15T00:25:32.990Z,12.76
2018-05-15T00:28:36.242Z,12.64
2018-05-15T00:31:39.510Z,12.50
2018-05-15T00:34:42.775Z,12.57
2018-05-15T00:37:46.053Z,12.52
2018-05-15T00:40:50.132Z,12.73
2018-05-15T00:43:53.466Z,12.76
2018-05-15T00:46:57.492Z,12.58
2018-05-15T00:50:01.603Z,12.53
2018-05-15T00:53:04.779Z,12.74
2018-05-15T00:56:08.046Z,12.73
2018-05-15T00:59:11.301Z,12.45
2018-05-15T01:02:14.565Z,12.45
2018-05-15T01:05:17.819Z,12.35
2018-05-15T01:08:21.850Z,12.34
2018-05-15T01:11:25.124Z,12.37
2018-05-15T01:14:28.403Z,12.39
2018-05-15T01:17:31.663Z,12.45
2018-05-15T01:20:34.918Z,12.50
2018-05-15T01:23:38.226Z,12.65
2018-05-15T01:26:41.450Z,12.75
2018-05-15T01:29:44.734Z,12.85
2018-05-15T01:32:48.799Z,12.63
2018-05-15T01:35:52.058Z,12.60
2018-05-15T01:38:55.321Z,12.57
2018-05-15T01:41:58.601Z,12.75
2018-05-15T01:45:01.863Z,12.85
2018-05-15T01:48:05.124Z,12.78
2018-05-15T01:51:08.460Z,12.92
2018-05-15T01:54:12.475Z,12.83
2018-05-15T01:57:15.744Z,12.64
2018-05-15T02:00:19.545Z,12.57
2018-05-15T02:03:22.815Z,12.53
2018-05-15T02:06:26.066Z,12.50
2018-05-15T02:09:30.090Z,12.56
2018-05-15T02:12:35.163Z,12.67
2018-05-15T02:15:38.424Z,12.50
2018-05-15T02:18:42.488Z,12.50
2018-05-15T02:21:45.749Z,12.35
2018-05-15T02:24:49.770Z,12.20
2018-05-15T02:27:53.036Z,11.97
2018-05-15T02:30:56.289Z,11.84
2018-05-15T02:33:59.543Z,11.63
2018-05-15T02:37:02.809Z,11.64
2018-05-15T02:40:06.065Z,11.47
2018-05-15T02:43:09.409Z,11.51
2018-05-15T02:46:12.659Z,11.44
2018-05-15T02:49:16.701Z,11.51
2018-05-15T02:52:19.964Z,11.37
2018-05-15T02:55:23.993Z,11.33
2018-05-15T02:58:27.276Z,11.31
2018-05-15T03:01:31.330Z,11.18
2018-05-15T03:04:34.584Z,11.10
2018-05-15T03:07:38.617Z,10.99
2018-05-15T03:10:41.883Z,10.96
2018-05-15T03:13:46.097Z,10.89
2018-05-15T03:16:49.365Z,10.80
2018-05-15T03:19:52.628Z,10.87
2018-05-15T03:22:56.656Z,11.00
2018-05-15T03:25:59.946Z,10.98
2018-05-15T03:29:03.978Z,11.00
2018-05-15T03:32:08.004Z,10.88
2018-05-15T03:35:11.261Z,10.90
2018-05-15T03:38:14.531Z,10.84
2018-05-15T03:41:17.793Z,10.83
2018-05-15T03:44:21.061Z,10.76
2018-05-15T03:47:24.332Z,10.72
2018-05-15T03:50:27.609Z,10.72
2018-05-15T03:53:31.010Z,10.75
2018-05-15T03:56:34.297Z,10.86
2018-05-15T03:59:37.549Z,10.91
2018-05-15T04:02:58.688Z,11.04
2018-05-15T04:06:20.380Z,11.05
2018-05-15T04:09:23.649Z,11.12
2018-05-15T04:12:26.942Z,11.26
2018-05-15T04:15:30.185Z,11.35
2018-05-15T04:18:33.460Z,11.41
2018-05-15T04:21:36.768Z,11.43
2018-05-15T04:24:40.056Z,11.46
2018-05-15T04:27:44.086Z,11.56
2018-05-15T04:30:49.180Z,11.71
2018-05-15T04:33:52.464Z,11.81
2018-05-15T04:36:55.724Z,11.93
2018-05-15T04:39:59.043Z,12.02
2018-05-15T04:43:02.329Z,12.10
2018-05-15T04:46:05.819Z,12.17
2018-05-15T04:49:09.226Z,12.17
2018-05-15T04:52:12.629Z,12.28
2018-05-15T04:55:16.008Z,12.38
2018-05-15T04:58:19.331Z,12.55
2018-05-15T05:01:22.614Z,12.85
2018-05-15T05:04:26.645Z,12.98
2018-05-15T05:07:29.888Z,12.90
2018-05-15T05:10:33.161Z,12.83
2018-05-15T05:13:36.538Z,12.83
2018-05-15T05:16:39.890Z,13.16
2018-05-15T05:19:43.145Z,13.44
2018-05-15T05:22:46.411Z,13.82
2018-05-15T05:25:49.676Z,13.76
2018-05-15T05:28:53.041Z,13.75
2018-05-15T05:31:57.049Z,13.30
2018-05-15T05:35:00.320Z,13.08
2018-05-15T05:38:03.582Z,13.18
2018-05-15T05:41:07.615Z,13.27
2018-05-15T05:44:11.635Z,13.36
2018-05-15T05:47:14.885Z,13.47
2018-05-15T05:50:18.147Z,13.69
2018-05-15T05:53:21.423Z,13.53
2018-05-15T05:56:24.677Z,13.53
2018-05-15T05:59:28.702Z,14.52
2018-05-15T06:02:32.745Z,15.13
2018-05-15T06:05:36.767Z,15.51
2018-05-15T06:08:40.793Z,15.82
2018-05-15T06:11:44.710Z,14.79
2018-05-15T06:14:47.983Z,13.74
2018-05-15T06:17:51.233Z,13.53
2018-05-15T06:20:54.531Z,13.61
2018-05-15T06:23:58.290Z,13.70
2018-05-15T06:27:01.534Z,13.89
2018-05-15T06:30:04.793Z,13.92
2018-05-15T06:33:08.076Z,14.17
2018-05-15T06:36:11.333Z,14.03
2018-05-15T06:39:15.377Z,14.28
2018-05-15T06:42:18.632Z,14.45
2018-05-15T06:45:21.887Z,14.15
2018-05-15T06:48:25.915Z,13.99
2018-05-15T06:51:29.930Z,14.11
2018-05-15T06:54:33.201Z,14.00
2018-05-15T06:57:36.449Z,13.90
2018-05-15T07:00:39.710Z,13.98
2018-05-15T07:03:42.966Z,14.13
2018-05-15T07:06:46.981Z,14.45
2018-05-15T07:09:50.237Z,14.51
2018-05-15T07:12:53.498Z,14.34
2018-05-15T07:15:56.762Z,14.61
2018-05-15T07:19:00.031Z,14.76
2018-05-15T07:22:03.357Z,15.32
2018-05-15T07:25:06.609Z,15.05
2018-05-15T07:28:09.883Z,15.44
2018-05-15T07:31:13.730Z,15.47
2018-05-15T07:34:16.983Z,15.30
2018-05-15T07:37:21.003Z,15.80
2018-05-15T07:40:24.270Z,16.79
2018-05-15T07:43:28.979Z,17.05
2018-05-15T07:46:32.248Z,16.78
2018-05-15T07:49:35.503Z,16.08
2018-05-15T07:52:39.847Z,15.56
2018-05-15T07:55:43.134Z,15.35
2018-05-15T07:58:47.157Z,16.48
2018-05-15T08:01:51.259Z,16.86
2018-05-15T08:04:54.529Z,16.89
2018-05-15T08:07:57.820Z,16.72
2018-05-15T08:11:01.865Z,15.89
2018-05-15T08:14:05.122Z,15.76
2018-05-15T08:17:08.386Z,15.84
2018-05-15T08:20:11.651Z,16.25
2018-05-15T08:23:15.738Z,16.36
2018-05-15T08:26:19.014Z,16.12
2018-05-15T08:29:22.266Z,16.16
2018-05-15T08:32:26.311Z,15.77
2018-05-15T08:35:29.561Z,15.92
2018-05-15T08:38:33.591Z,15.75
2018-05-15T08:41:37.625Z,16.02
2018-05-15T08:44:40.882Z,16.12
2018-05-15T08:47:44.139Z,16.53
2018-05-15T08:50:48.146Z,15.76
2018-05-15T08:53:51.413Z,15.82
2018-05-15T08:56:55.445Z,15.71
2018-05-15T09:00:00.189Z,15.75
2018-05-15T09:03:03.441Z,16.25
2018-05-15T09:06:06.774Z,16.21
2018-05-15T09:09:10.813Z,16.63
2018-05-15T09:12:14.071Z,15.90
2018-05-15T09:15:17.330Z,15.60
2018-05-15T09:18:20.699Z,15.58
2018-05-15T09:21:23.877Z,15.59
2018-05-15T09:24:27.133Z,15.94
2018-05-15T09:27:30.388Z,15.41
2018-05-15T09:30:34.431Z,15.87
2018-05-15T09:33:37.705Z,15.65
2018-05-15T09:36:42.766Z,15.68
2018-05-15T09:39:46.035Z,15.34
2018-05-15T09:42:50.064Z,15.65
2018-05-15T09:45:53.333Z,16.05
2018-05-15T09:48:56.914Z,16.20
2018-05-15T09:52:00.193Z,16.20
2018-05-15T09:55:03.562Z,16.27
2018-05-15T09:58:07.613Z,16.27
2018-05-15T10:01:10.866Z,16.42
2018-05-15T10:04:14.886Z,16.96
2018-05-15T10:07:18.922Z,16.50
2018-05-15T10:10:22.198Z,16.48
2018-05-15T10:13:25.466Z,16.97
2018-05-15T10:16:28.740Z,17.84
2018-05-15T10:19:31.993Z,17.03
2018-05-15T10:22:36.040Z,17.08
2018-05-15T10:25:39.298Z,16.52
2018-05-15T10:28:42.554Z,16.47
2018-05-15T10:31:45.820Z,16.93
2018-05-15T10:34:49.075Z,17.47
2018-05-15T10:37:52.338Z,17.80
2018-05-15T10:40:55.613Z,17.68
2018-05-15T10:43:58.918Z,18.34
2018-05-15T10:47:02.137Z,19.08
2018-05-15T10:50:05.398Z,18.06
2018-05-15T10:53:08.654Z,18.32
2018-05-15T10:56:11.928Z,17.68
2018-05-15T10:59:15.939Z,17.26
2018-05-15T11:02:19.962Z,18.22
2018-05-15T11:05:23.988Z,17.73
2018-05-15T11:08:28.076Z,17.52
2018-05-15T11:11:31.335Z,17.88
2018-05-15T11:14:34.587Z,18.08
2018-05-15T11:17:38.619Z,18.17
2018-05-15T11:21:00.291Z,18.47
2018-05-15T11:27:50.671Z,17.59
2018-05-15T11:30:54.707Z,16.84
2018-05-15T11:33:58.744Z,16.87
2018-05-15T11:37:02.005Z,16.96
2018-05-15T11:40:05.256Z,17.05
2018-05-15T11:43:08.521Z,16.68
2018-05-15T11:46:12.562Z,16.59
2018-05-15T11:49:16.256Z,16.47
2018-05-15T11:52:20.072Z,16.80
2018-05-15T11:55:22.364Z,16.77
2018-05-15T11:58:26.402Z,17.02
2018-05-15T12:01:29.662Z,16.60
2018-05-15T12:04:32.938Z,16.08
2018-05-15T12:07:36.203Z,15.63
2018-05-15T12:10:40.241Z,15.57
2018-05-15T12:13:43.515Z,15.19
2018-05-15T12:16:46.776Z,15.09
2018-05-15T12:19:50.789Z,14.69
2018-05-15T12:22:54.881Z,14.09
2018-05-15T12:25:58.168Z,14.07
2018-05-15T12:29:01.422Z,14.30
2018-05-15T12:32:04.685Z,14.64
2018-05-15T12:35:09.748Z,15.02
2018-05-15T12:38:15.078Z,15.46
2018-05-15T12:41:18.396Z,15.73
2018-05-15T12:44:21.601Z,16.00
2018-05-15T12:47:24.855Z,16.21
2018-05-15T12:50:28.112Z,16.22
2018-05-15T12:53:32.499Z,15.95
2018-05-15T12:56:35.762Z,15.54
2018-05-15T12:59:39.016Z,15.49
2018-05-15T13:02:42.279Z,15.49
2018-05-15T13:05:45.539Z,15.52
2018-05-15T13:08:48.834Z,15.41
2018-05-15T13:11:52.198Z,15.37
2018-05-15T13:14:55.470Z,15.38
2018-05-15T13:17:58.733Z,15.24
2018-05-15T13:21:02.085Z,14.50
2018-05-15T13:24:05.473Z,14.29
2018-05-15T13:27:09.714Z,14.40
2018-05-15T13:30:13.839Z,14.44
2018-05-15T13:33:17.947Z,13.92
2018-05-15T13:36:21.248Z,14.03
2018-05-15T13:39:24.566Z,13.71
2018-05-15T13:42:28.743Z,13.43
2018-05-15T13:45:32.003Z,13.69
2018-05-15T13:48:35.473Z,14.09
2018-05-15T13:51:39.563Z,14.76
2018-05-15T13:54:43.638Z,14.86
2018-05-15T13:57:47.002Z,15.17
2018-05-15T14:00:50.280Z,15.93
2018-05-15T14:03:53.619Z,16.34
2018-05-15T14:06:57.277Z,16.35
2018-05-15T14:10:01.741Z,16.15
2018-05-15T14:13:05.096Z,16.24
2018-05-15T14:16:08.367Z,16.55
2018-05-15T14:19:11.697Z,16.75
2018-05-15T14:22:14.910Z,16.72
2018-05-15T14:25:18.174Z,16.49
2018-05-15T14:28:21.437Z,16.94
2018-05-15T14:31:25.690Z,17.02
2018-05-15T14:34:29.786Z,16.77
2018-05-15T14:37:33.114Z,16.94
2018-05-15T14:40:36.500Z,16.64
2018-05-15T14:43:40.091Z,16.44
2018-05-15T14:46:43.376Z,16.66
2018-05-15T14:49:46.755Z,16.60
2018-05-15T14:52:50.024Z,16.68
2018-05-15T14:55:53.306Z,16.63
2018-05-15T14:58:56.558Z,16.42
2018-05-15T15:01:59.870Z,16.41
2018-05-15T15:05:03.344Z,16.26
2018-05-15T15:08:06.637Z,16.11
2018-05-15T15:11:09.927Z,16.93
2018-05-15T15:14:13.949Z,17.74
2018-05-15T15:17:18.078Z,18.32
2018-05-15T15:20:22.139Z,18.16
2018-05-15T15:23:25.539Z,17.56
2018-05-15T15:26:28.806Z,17.44
2018-05-15T15:29:32.967Z,17.22
2018-05-15T15:32:36.262Z,16.46
2018-05-15T15:35:39.624Z,16.27
2018-05-15T15:38:42.939Z,16.39
2018-05-15T15:41:46.326Z,16.37
2018-05-15T15:44:49.616Z,16.43
2018-05-15T15:47:52.878Z,16.15
2018-05-15T15:50:57.052Z,16.41
2018-05-15T15:54:00.377Z,16.52
2018-05-15T15:57:03.710Z,16.53
2018-05-15T16:00:07.735Z,16.73
2018-05-15T16:03:11.081Z,16.60
2018-05-15T16:06:14.346Z,16.72
2018-05-15T16:09:18.533Z,16.28
2018-05-15T16:12:21.943Z,16.28
2018-05-15T16:15:25.233Z,16.30
2018-05-15T16:18:28.538Z,16.35
2018-05-15T16:21:31.802Z,16.12
2018-05-15T16:24:35.128Z,16.43
2018-05-15T16:27:38.454Z,16.48
2018-05-15T16:30:41.702Z,16.63
2018-05-15T16:33:45.763Z,16.48
2018-05-15T16:36:49.031Z,16.11
2018-05-15T16:39:53.273Z,15.99
2018-05-15T16:42:56.965Z,16.37
2018-05-15T16:46:01.667Z,16.78
2018-05-15T16:49:06.604Z,17.42
2018-05-15T16:52:10.646Z,17.19
2018-05-15T16:55:14.675Z,17.19
2018-05-15T16:58:18.781Z,15.90
2018-05-15T17:01:22.085Z,15.73
2018-05-15T17:04:26.228Z,15.16
2018-05-15T17:07:30.269Z,15.21
2018-05-15T17:10:33.544Z,15.01
2018-05-15T17:13:38.002Z,15.00
2018-05-15T17:16:41.473Z,14.94
2018-05-15T17:19:44.849Z,14.95
2018-05-15T17:22:48.210Z,14.96
2018-05-15T17:25:52.328Z,15.16
2018-05-15T17:28:56.362Z,15.26
2018-05-15T17:31:59.637Z,15.01
2018-05-15T17:35:03.793Z,14.61
2018-05-15T17:38:07.097Z,14.59
2018-05-15T17:41:10.447Z,14.39
2018-05-15T17:44:13.723Z,13.99
2018-05-15T17:47:17.023Z,13.67
2018-05-15T17:50:20.329Z,13.55
2018-05-15T17:53:23.705Z,13.04
2018-05-15T17:56:27.123Z,12.78
2018-05-15T17:59:30.482Z,12.64
2018-05-15T18:02:33.786Z,12.05
2018-05-15T18:05:37.843Z,11.85
2018-05-15T18:08:41.458Z,11.78
2018-05-15T18:11:44.717Z,11.77
2018-05-15T18:14:47.992Z,11.87
2018-05-15T18:17:51.290Z,11.41
2018-05-15T18:20:54.732Z,11.16
2018-05-15T18:23:57.991Z,10.93
2018-05-15T18:27:01.265Z,10.89
2018-05-15T18:30:04.529Z,10.87
2018-05-15T18:33:08.904Z,10.87
2018-05-15T18:36:12.251Z,10.83
2018-05-15T18:39:15.644Z,10.93
2018-05-15T18:42:18.905Z,11.04
2018-05-15T18:45:22.191Z,10.95
2018-05-15T18:48:26.190Z,11.02
2018-05-15T18:51:29.456Z,11.01
2018-05-15T18:54:32.741Z,11.07
2018-05-15T18:57:36.213Z,10.76
2018-05-15T19:00:39.589Z,11.11
2018-05-15T19:03:43.745Z,11.21
2018-05-15T19:06:47.096Z,11.16
2018-05-15T19:09:50.301Z,11.20
2018-05-15T19:12:53.596Z,11.20
2018-05-15T19:15:57.674Z,11.17
2018-05-15T19:19:00.950Z,11.26
2018-05-15T19:22:04.207Z,11.17
2018-05-15T19:25:07.465Z,11.17
2018-05-15T19:28:10.777Z,11.22
2018-05-15T19:31:16.906Z,11.27
2018-05-15T19:34:24.902Z,11.23
2018-05-15T19:37:28.230Z,11.13
2018-05-15T19:40:32.249Z,11.01
2018-05-15T19:43:35.503Z,11.06
2018-05-15T19:46:40.793Z,11.12
2018-05-15T19:49:47.294Z,11.10
2018-05-15T19:52:50.619Z,10.96
2018-05-15T19:55:53.961Z,11.00
2018-05-15T19:58:57.236Z,10.99
2018-05-15T20:02:00.608Z,10.84
2018-05-15T20:05:04.537Z,10.88
2018-05-15T20:08:08.559Z,10.88
2018-05-15T20:11:12.161Z,10.81
2018-05-15T20:14:15.426Z,10.80
2018-05-15T20:17:18.699Z,10.80
2018-05-15T20:20:22.755Z,10.88
2018-05-15T20:23:26.008Z,10.90
2018-05-15T20:26:29.275Z,10.94
2018-05-15T20:29:32.527Z,10.98
2018-05-15T20:32:35.932Z,11.01
2018-05-15T20:35:39.194Z,10.93
2018-05-15T20:38:42.448Z,10.83
2018-05-15T20:41:45.707Z,10.74
2018-05-15T20:44:49.801Z,10.77
2018-05-15T20:47:53.105Z,10.65
2018-05-15T20:50:57.153Z,10.68
2018-05-15T20:54:00.411Z,10.70
2018-05-15T20:57:03.678Z,10.59
2018-05-15T21:00:06.938Z,10.55
2018-05-15T21:03:10.211Z,10.53
2018-05-15T21:06:14.234Z,10.50
2018-05-15T21:09:17.529Z,10.52
2018-05-15T21:12:21.546Z,10.48
2018-05-15T21:15:25.562Z,10.37
2018-05-15T21:18:28.818Z,10.45
2018-05-15T21:21:32.089Z,10.43
2018-05-15T21:24:36.202Z,10.47
2018-05-15T21:27:39.459Z,10.57
2018-05-15T21:30:43.509Z,10.58
2018-05-15T21:33:46.765Z,10.59
2018-05-15T21:36:50.183Z,10.55
2018-05-15T21:39:53.392Z,10.53
2018-05-15T21:42:57.412Z,10.56
2018-05-15T21:46:00.673Z,10.50
2018-05-15T21:49:03.938Z,10.52
2018-05-15T21:52:07.963Z,10.58
2018-05-15T21:55:11.210Z,10.64
2018-05-15T21:58:14.458Z,10.60
2018-05-15T22:01:17.715Z,10.66
2018-05-15T22:04:21.739Z,10.61
2018-05-15T22:07:24.995Z,10.58
2018-05-15T22:10:28.330Z,10.48
2018-05-15T22:13:49.906Z,10.49
2018-05-15T22:17:10.849Z,10.51
2018-05-15T22:20:31.896Z,10.51
2018-05-15T22:23:35.165Z,10.50
2018-05-15T22:26:38.484Z,10.49
2018-05-15T22:29:41.732Z,10.48
2018-05-15T22:32:44.999Z,10.53
2018-05-15T22:35:49.339Z,10.54
2018-05-15T22:38:53.377Z,10.55
2018-05-15T22:41:57.572Z,10.58
2018-05-15T22:45:01.582Z,10.53
2018-05-15T22:48:05.611Z,10.53
2018-05-15T22:51:09.634Z,10.52
2018-05-15T22:54:12.930Z,10.46
2018-05-15T22:57:16.954Z,10.47
2018-05-15T23:00:20.368Z,10.42
2018-05-15T23:03:23.651Z,10.50
2018-05-15T23:06:27.695Z,10.55
2018-05-15T23:09:30.941Z,10.52
2018-05-15T23:12:34.258Z,10.59
2018-05-15T23:15:38.358Z,10.52
2018-05-15T23:18:41.558Z,10.50
2018-05-15T23:21:44.835Z,10.51
2018-05-15T23:24:48.107Z,10.38
2018-05-15T23:27:51.365Z,10.40
2018-05-15T23:30:54.629Z,10.37
2018-05-15T23:33:57.865Z,10.40
2018-05-15T23:37:01.130Z,10.32
2018-05-15T23:40:04.386Z,10.41
2018-05-15T23:43:08.531Z,10.30
2018-05-15T23:46:11.791Z,10.31
2018-05-15T23:49:15.029Z,10.27
2018-05-15T23:52:19.157Z,10.21
2018-05-15T23:55:22.502Z,10.14
2018-05-15T23:58:25.778Z,10.07
